Details From SBPK - Pelotas
To SUAA - ANGEL S ADAMI
Flight Number -
Tags generated
Created
Modified
Stats Distance 271 nm / 502 km
Max Altitude 28,800 ft / 8,778 m
Waypoints 5
Social Downloads 0
Likes 0
Share VATSIM

Download

Looking for another format? Having issues loading an existing format? Contact us
Advertisement - Login to hide

Notes

Basic altitude profile: - Ascent Rate: 2500ft/min - Ascent Speed: 250kts - Cruise Altitude: 35000ft - Cruise Speed: 420kts - Descent Rate: 1500ft/min - Descent Speed: 250kts Options: - Use NATs: yes - Use PACOTS: yes - Use low airways: yes - Use high airways: yes

Route

SBPK UGURA UA309 OGMAR A309 SOLIS SUAA

ID Type Via Altitude Latitude Longitude Leg Dist Tot Dist Heading (true) Name
O SBPK APT - 0 ft / 0 m -31.72043˚ -52.32733˚ - 0 nm - Pelotas
UGURA FIX - 26,400 ft / 8,047 m -32.60472˚ -53.34083˚ 73 nm 73 nm 224° / 224° -
OGMAR FIX UA309 (AWY-HI) 28,800 ft / 8,778 m -33.29306˚ -54.14889˚ 58 nm 132 nm 224° / 225° -
SOLIS FIX A309 (AWY-LO) 10,500 ft / 3,200 m -34.34917˚ -55.42472˚ 89 nm 221 nm 225° / 225° -
O SUAA APT - 0 ft / 0 m -34.78910˚ -56.26470˚ 49 nm 271 nm 237° / 238° ANGEL S ADAMI

Altitude Profile

Advertisement - Login to hide

Weather


0- 5 10 15 20 25 30 35+ Temperature / ° C

Clouds and Precipitation
Forecast for 2017-12-14 18:00 UTC. Updated 2 hours ago

Ground ~20,000 ft ~40,000 ft Winds

SBPK

Details ICAO SBPK (PET)
Name Pelotas
Region Brazil
Timezone America/Sao_Paulo (UTC-2.0)
Stats Elevation 59 ft / 18 m (AMSL)
Location -31.720428° -52.327334°
Runways 2
Magnetic Variation 15.315° W

METAR

SBPK 141900Z 27013G23KT 9999 FEW025 32/18 Q1009

Decode

TAF

Not found

Departure Runways

ID Width Length Bearing (true) Bearing (mag) Surface Threshold Offset Overrun Length
06 138 ft / 42 m 6,501 ft / 1,982 m 51.16° 66.48° Concrete 0 ft / 0 m 0 ft / 0 m
15 138 ft / 42 m 4,050 ft / 1,234 m 142.34° 157.66° Grass 0 ft / 0 m 0 ft / 0 m
24 138 ft / 42 m 6,501 ft / 1,982 m 231.15° 246.47° Concrete 0 ft / 0 m 0 ft / 0 m
33 138 ft / 42 m 4,050 ft / 1,234 m 322.34° 337.66° Grass 0 ft / 0 m 0 ft / 0 m

SUAA

Details ICAO SUAA
Name ANGEL S ADAMI
Region Uruguay
Timezone America/Montevideo (UTC-3.0)
Stats Elevation 174 ft / 53 m (AMSL)
Location -34.789096° -56.264702°
Runways 1
Magnetic Variation 10.654° W

METAR

SUAA 141900Z 28015KT CAVOK 28/14 Q1010

Decode

TAF

TAF TAF SUAA 141730Z 1418/1518 25010KT 9999 FEW030 TX33/1518Z TN18/1509Z BECMG 1422/1500 10015KT BECMG 1504/1506 04010KT BECMG 1514/1516 28005KT BECMG 1516/1518 20010KT

Decode

Destination Runways

ID Width Length Bearing (true) Bearing (mag) Surface Threshold Offset Overrun Length
18 75 ft / 23 m 4,194 ft / 1,278 m 176.77° 187.42° Concrete 0 ft / 0 m 0 ft / 0 m
36 75 ft / 23 m 4,194 ft / 1,278 m 356.77° 7.42° Concrete 0 ft / 0 m 0 ft / 0 m

Popular Alternatives